createdAt,value
2022-12-01T00:01:46.878Z,4.58
2022-12-01T00:04:16.376Z,4.57
2022-12-01T00:06:45.379Z,4.51
2022-12-01T00:09:31.755Z,4.51
2022-12-01T00:12:00.730Z,4.52
2022-12-01T00:14:31.405Z,4.57
2022-12-01T00:17:00.466Z,4.55
2022-12-01T00:19:30.219Z,4.62
2022-12-01T00:21:59.919Z,4.65
2022-12-01T00:24:29.038Z,4.61
2022-12-01T00:26:58.231Z,4.56
2022-12-01T00:29:27.299Z,4.55
2022-12-01T00:31:57.924Z,4.52
2022-12-01T00:34:28.498Z,4.57
2022-12-01T00:36:57.595Z,4.50
2022-12-01T00:39:26.664Z,4.51
2022-12-01T00:41:55.849Z,4.50
2022-12-01T00:44:24.911Z,4.48
2022-12-01T00:46:54.135Z,4.52
2022-12-01T00:49:24.495Z,4.42
2022-12-01T00:51:53.545Z,4.42
2022-12-01T00:54:22.638Z,4.39
2022-12-01T00:56:54.790Z,4.33
2022-12-01T00:59:24.210Z,4.28
2022-12-01T01:01:53.457Z,4.31
2022-12-01T01:04:24.294Z,4.36
2022-12-01T01:06:53.609Z,4.37
2022-12-01T01:09:22.801Z,4.37
2022-12-01T01:11:51.826Z,4.42
2022-12-01T01:14:21.183Z,4.42
2022-12-01T01:16:51.356Z,4.38
2022-12-01T01:19:20.484Z,4.43
2022-12-01T01:21:50.843Z,4.44
2022-12-01T01:24:20.141Z,4.46
2022-12-01T01:26:49.315Z,4.49
2022-12-01T01:29:18.404Z,4.51
2022-12-01T01:31:47.459Z,4.47
2022-12-01T01:34:16.843Z,4.42
2022-12-01T01:36:46.883Z,4.41
2022-12-01T01:39:18.216Z,4.35
2022-12-01T01:41:47.493Z,4.39
2022-12-01T01:44:48.745Z,4.36
2022-12-01T01:47:21.207Z,4.35
2022-12-01T01:49:50.991Z,4.35
2022-12-01T01:52:20.382Z,4.27
2022-12-01T01:54:55.093Z,4.20
2022-12-01T01:57:28.252Z,4.13
2022-12-01T02:00:00.709Z,4.14
2022-12-01T02:02:31.631Z,4.09
2022-12-01T02:05:04.086Z,4.08
2022-12-01T02:07:33.247Z,4.06
2022-12-01T02:10:03.815Z,4.04
2022-12-01T02:12:53.465Z,4.01
2022-12-01T02:15:32.368Z,4.09
2022-12-01T02:18:18.901Z,4.17
2022-12-01T02:21:09.143Z,4.19
2022-12-01T02:24:00.762Z,4.23
2022-12-01T02:26:44.017Z,4.15
2022-12-01T02:29:51.156Z,4.16
2022-12-01T02:32:31.632Z,4.14
2022-12-01T02:35:05.993Z,4.14
2022-12-01T02:37:39.695Z,4.15
2022-12-01T02:40:19.213Z,4.19
2022-12-01T02:42:52.160Z,4.20
2022-12-01T02:45:38.594Z,4.09
2022-12-01T02:48:13.555Z,4.02
2022-12-01T02:50:45.081Z,3.99
2022-12-01T02:53:17.158Z,4.04
2022-12-01T02:55:51.798Z,3.97
2022-12-01T02:58:21.113Z,3.96
2022-12-01T03:01:04.665Z,3.93
2022-12-01T03:03:45.483Z,3.89
2022-12-01T03:06:22.463Z,3.92
2022-12-01T03:09:01.661Z,3.96
2022-12-01T03:11:39.445Z,4.03
2022-12-01T03:14:25.017Z,3.99
2022-12-01T03:16:56.092Z,3.97
2022-12-01T03:19:35.308Z,3.93
2022-12-01T03:22:10.091Z,3.97
2022-12-01T03:24:41.902Z,3.91
2022-12-01T03:27:12.909Z,3.96
2022-12-01T03:29:45.721Z,4.02
2022-12-01T03:32:21.001Z,4.04
2022-12-01T03:34:56.809Z,3.99
2022-12-01T03:37:32.727Z,3.85
2022-12-01T03:40:07.492Z,3.95
2022-12-01T03:42:39.262Z,3.95
2022-12-01T03:45:13.643Z,3.98
2022-12-01T03:47:43.066Z,4.03
2022-12-01T03:50:15.371Z,3.96
2022-12-01T03:52:51.061Z,3.94
2022-12-01T03:55:25.081Z,3.95
2022-12-01T03:57:59.961Z,3.99
2022-12-01T04:00:29.767Z,3.95
2022-12-01T04:03:00.672Z,3.93
2022-12-01T04:05:32.575Z,3.93
2022-12-01T04:08:02.009Z,3.92
2022-12-01T04:10:31.134Z,3.87
2022-12-01T04:12:59.817Z,3.90
2022-12-01T04:15:29.767Z,3.89
2022-12-01T04:17:58.952Z,3.82
2022-12-01T04:20:27.987Z,3.83
2022-12-01T04:22:58.379Z,3.86
2022-12-01T04:25:27.499Z,3.88
2022-12-01T04:27:56.997Z,3.88
2022-12-01T04:30:25.966Z,3.87
2022-12-01T04:32:55.079Z,3.83
2022-12-01T04:35:24.154Z,3.88
2022-12-01T04:37:53.622Z,3.92
2022-12-01T04:40:24.158Z,3.93
2022-12-01T04:42:53.624Z,4.04
2022-12-01T04:45:22.588Z,4.08
2022-12-01T04:47:54.378Z,4.11
2022-12-01T04:50:23.736Z,4.13
2022-12-01T04:52:52.690Z,4.11
2022-12-01T04:55:22.729Z,4.17
2022-12-01T04:57:53.497Z,4.22
2022-12-01T05:00:23.182Z,4.20
2022-12-01T05:02:52.343Z,4.23
2022-12-01T05:05:21.645Z,4.25
2022-12-01T05:07:50.725Z,4.16
2022-12-01T05:10:20.011Z,4.06
2022-12-01T05:12:49.168Z,4.03
2022-12-01T05:15:19.966Z,3.98
2022-12-01T05:17:49.032Z,3.91
2022-12-01T05:20:38.730Z,3.92
2022-12-01T05:23:09.790Z,3.84
2022-12-01T05:25:42.769Z,3.84
2022-12-01T05:28:11.899Z,3.82
2022-12-01T05:30:42.638Z,3.77
2022-12-01T05:33:11.756Z,3.76
2022-12-01T05:35:40.871Z,3.77
2022-12-01T05:38:10.751Z,3.73
2022-12-01T05:40:40.256Z,3.64
2022-12-01T05:43:09.331Z,3.59
2022-12-01T05:45:39.049Z,3.54
2022-12-01T05:48:10.572Z,3.61
2022-12-01T05:50:41.137Z,3.55
2022-12-01T05:53:12.779Z,3.60
2022-12-01T05:55:42.031Z,3.57
2022-12-01T05:58:11.645Z,3.60
2022-12-01T06:00:45.586Z,3.67
2022-12-01T06:03:16.657Z,3.67
2022-12-01T06:05:45.699Z,3.66
2022-12-01T06:08:14.626Z,3.73
2022-12-01T06:10:43.598Z,3.83
2022-12-01T06:13:12.634Z,3.81
2022-12-01T06:15:42.076Z,3.78
2022-12-01T06:18:11.303Z,3.75
2022-12-01T06:20:42.471Z,3.65
2022-12-01T06:23:11.570Z,3.70
2022-12-01T06:25:40.628Z,3.66
2022-12-01T06:28:09.820Z,3.63
2022-12-01T06:30:47.725Z,3.62
2022-12-01T06:33:18.521Z,3.55
2022-12-01T06:35:49.097Z,3.59
2022-12-01T06:38:18.692Z,3.65
2022-12-01T06:40:47.638Z,3.66
2022-12-01T06:43:17.209Z,3.75
2022-12-01T06:45:47.237Z,3.76
2022-12-01T06:48:16.773Z,3.77
2022-12-01T06:50:46.944Z,3.76
2022-12-01T06:53:17.669Z,3.72
2022-12-01T06:55:47.060Z,3.76
2022-12-01T06:58:16.561Z,3.73
2022-12-01T07:00:51.761Z,3.75
2022-12-01T07:03:21.709Z,3.78
2022-12-01T07:05:58.921Z,3.79
2022-12-01T07:08:30.755Z,3.84
2022-12-01T07:11:01.184Z,3.82
2022-12-01T07:13:33.800Z,3.83
2022-12-01T07:16:04.838Z,3.87
2022-12-01T07:18:34.951Z,3.85
2022-12-01T07:21:06.193Z,3.69
2022-12-01T07:23:37.093Z,3.72
2022-12-01T07:26:07.998Z,3.73
2022-12-01T07:28:37.058Z,3.77
2022-12-01T07:31:07.778Z,3.84
2022-12-01T07:33:37.373Z,3.85
2022-12-01T07:36:07.352Z,3.87
2022-12-01T07:38:38.156Z,3.84
2022-12-01T07:41:08.570Z,3.89
2022-12-01T07:43:38.647Z,3.99
2022-12-01T07:46:10.095Z,4.05
2022-12-01T07:48:40.914Z,4.01
2022-12-01T07:51:11.678Z,4.12
2022-12-01T07:53:42.337Z,4.22
2022-12-01T07:56:11.438Z,4.22
2022-12-01T07:58:41.753Z,4.25
2022-12-01T08:01:13.272Z,4.25
2022-12-01T08:03:56.248Z,4.22
2022-12-01T08:06:27.210Z,4.08
2022-12-01T08:08:58.056Z,4.14
2022-12-01T08:11:30.178Z,4.13
2022-12-01T08:14:01.676Z,4.12
2022-12-01T08:16:31.585Z,4.13
2022-12-01T08:19:00.833Z,4.05
2022-12-01T08:21:29.778Z,4.12
2022-12-01T08:24:00.544Z,4.23
2022-12-01T08:26:29.742Z,4.21
2022-12-01T08:28:59.692Z,4.22
2022-12-01T08:31:30.876Z,4.14
2022-12-01T08:34:12.906Z,4.22
2022-12-01T08:36:44.401Z,4.19
2022-12-01T08:39:18.201Z,4.17
2022-12-01T08:41:47.876Z,4.19
2022-12-01T08:44:19.077Z,4.14
2022-12-01T08:46:48.141Z,4.16
2022-12-01T08:49:17.369Z,4.20
2022-12-01T08:51:46.308Z,4.17
2022-12-01T08:54:15.527Z,4.20
2022-12-01T08:56:48.655Z,4.28
2022-12-01T08:59:21.773Z,4.30
2022-12-01T09:01:54.353Z,4.33
2022-12-01T09:04:25.899Z,4.42
2022-12-01T09:06:57.704Z,4.41
2022-12-01T09:09:28.710Z,4.42
2022-12-01T09:11:59.334Z,4.37
2022-12-01T09:14:28.390Z,4.38
2022-12-01T09:16:57.640Z,4.38
2022-12-01T09:19:28.812Z,4.35
2022-12-01T09:21:58.056Z,4.37
2022-12-01T09:24:27.305Z,4.36
2022-12-01T09:26:57.645Z,4.46
2022-12-01T09:29:28.320Z,4.45
2022-12-01T09:31:58.863Z,4.44
2022-12-01T09:34:29.264Z,4.46
2022-12-01T09:36:59.700Z,4.42
2022-12-01T09:39:29.964Z,4.45
2022-12-01T09:42:08.485Z,4.55
2022-12-01T09:44:43.385Z,4.50
2022-12-01T09:47:19.763Z,4.56
2022-12-01T09:49:56.890Z,4.52
2022-12-01T09:52:29.090Z,4.58
2022-12-01T09:55:00.917Z,4.57
2022-12-01T09:57:33.852Z,4.52
2022-12-01T10:00:14.202Z,4.66
2022-12-01T10:02:49.108Z,4.64
2022-12-01T10:05:21.574Z,4.63
2022-12-01T10:07:56.970Z,4.62
2022-12-01T10:10:31.761Z,4.59
2022-12-01T10:13:00.828Z,4.62
2022-12-01T10:15:41.086Z,4.66
2022-12-01T10:18:22.588Z,4.63
2022-12-01T10:20:58.728Z,4.57
2022-12-01T10:23:55.849Z,4.56
2022-12-01T10:26:33.242Z,4.62
2022-12-01T10:29:17.884Z,4.62
2022-12-01T10:31:55.064Z,4.54
2022-12-01T10:34:28.526Z,4.47
2022-12-01T10:36:58.630Z,4.50
2022-12-01T10:39:32.138Z,4.40
2022-12-01T10:42:06.617Z,4.50
2022-12-01T10:44:44.764Z,4.56
2022-12-01T10:47:21.298Z,4.46
2022-12-01T10:49:51.035Z,4.54
2022-12-01T10:52:34.492Z,4.55
2022-12-01T10:55:26.410Z,4.57
2022-12-01T10:58:10.426Z,4.60
2022-12-01T11:00:58.950Z,4.64
2022-12-01T11:03:33.865Z,4.56
2022-12-01T11:06:06.277Z,4.54
2022-12-01T11:08:41.337Z,4.59
2022-12-01T11:11:27.408Z,4.60
2022-12-01T11:13:59.658Z,4.64
2022-12-01T11:16:42.496Z,4.64
2022-12-01T11:19:31.083Z,4.66
2022-12-01T11:22:02.742Z,4.66
2022-12-01T11:24:42.858Z,4.64
2022-12-01T11:27:19.576Z,4.66
2022-12-01T11:29:52.565Z,4.63
2022-12-01T11:32:25.493Z,4.63
2022-12-01T11:35:00.409Z,4.62
2022-12-01T11:37:36.717Z,4.60
2022-12-01T11:40:19.996Z,4.55
2022-12-01T11:42:51.640Z,4.55
2022-12-01T11:45:28.702Z,4.50
2022-12-01T11:48:04.098Z,4.54
2022-12-01T11:50:36.700Z,4.54
2022-12-01T11:53:08.083Z,4.59
2022-12-01T11:55:37.466Z,4.58
2022-12-01T11:58:10.123Z,4.52
2022-12-01T12:00:47.579Z,4.55
2022-12-01T12:03:23.576Z,4.55
2022-12-01T12:06:38.935Z,4.45
2022-12-01T12:09:15.183Z,4.35
2022-12-01T12:11:59.423Z,4.29
2022-12-01T12:14:44.380Z,4.32
2022-12-01T12:17:27.480Z,4.29
2022-12-01T12:20:30.701Z,4.19
2022-12-01T12:23:27.561Z,4.11
2022-12-01T12:26:05.537Z,4.09
2022-12-01T12:28:55.016Z,4.13
2022-12-01T12:31:30.645Z,4.03
2022-12-01T12:34:24.012Z,4.01
2022-12-01T12:37:02.707Z,3.99
2022-12-01T12:39:51.470Z,3.97
2022-12-01T12:42:29.680Z,4.03
2022-12-01T12:45:06.942Z,3.93
2022-12-01T12:47:50.531Z,3.93
2022-12-01T12:50:36.916Z,3.92
2022-12-01T12:53:14.964Z,3.86
2022-12-01T12:55:49.737Z,3.97
2022-12-01T12:58:25.518Z,3.87
2022-12-01T13:00:59.761Z,3.85
2022-12-01T13:03:41.500Z,3.87
2022-12-01T13:06:14.890Z,3.94
2022-12-01T13:08:49.558Z,3.99
2022-12-01T13:11:24.831Z,4.06
2022-12-01T13:14:02.537Z,4.06
2022-12-01T13:16:37.646Z,3.97
2022-12-01T13:19:13.454Z,4.06
2022-12-01T13:21:45.697Z,4.01
2022-12-01T13:24:23.132Z,4.02
2022-12-01T13:26:58.491Z,4.06
2022-12-01T13:29:38.387Z,4.12
2022-12-01T13:32:30.371Z,4.07
2022-12-01T13:35:00.859Z,4.14
2022-12-01T13:37:32.309Z,4.18
2022-12-01T13:40:11.139Z,4.27
2022-12-01T13:42:42.510Z,4.19
2022-12-01T13:45:19.495Z,4.30
2022-12-01T13:47:54.773Z,4.36
2022-12-01T13:50:59.399Z,4.41
2022-12-01T13:53:36.432Z,4.40
2022-12-01T13:56:28.272Z,4.47
2022-12-01T13:58:59.053Z,4.50
2022-12-01T14:01:47.673Z,4.45
2022-12-01T14:04:28.819Z,4.45
2022-12-01T14:07:39.807Z,4.42
2022-12-01T14:10:18.624Z,4.40
2022-12-01T14:12:48.184Z,4.28
2022-12-01T14:15:37.479Z,4.29
2022-12-01T14:18:09.892Z,4.25
2022-12-01T14:20:47.109Z,4.23
2022-12-01T14:23:37.727Z,4.27
2022-12-01T14:26:16.172Z,4.24
2022-12-01T14:29:26.633Z,4.25
2022-12-01T14:32:27.772Z,4.26
2022-12-01T14:35:03.009Z,4.15
2022-12-01T14:37:45.824Z,4.15
2022-12-01T14:40:25.172Z,4.20
2022-12-01T14:43:16.629Z,4.17
2022-12-01T14:45:57.711Z,4.26
2022-12-01T14:48:37.533Z,4.12
2022-12-01T14:51:17.215Z,4.33
2022-12-01T14:53:50.259Z,4.24
2022-12-01T14:56:20.842Z,4.14
2022-12-01T14:58:55.701Z,4.04
2022-12-01T15:01:26.070Z,3.98
2022-12-01T15:04:00.164Z,4.18
2022-12-01T15:06:32.337Z,4.01
2022-12-01T15:12:08.477Z,3.87
2022-12-01T15:14:39.348Z,3.93
2022-12-01T15:17:09.282Z,3.82
2022-12-01T15:19:41.335Z,3.73
2022-12-01T15:22:18.746Z,3.74
2022-12-01T15:24:48.502Z,3.83
2022-12-01T15:27:28.707Z,3.75
2022-12-01T15:30:03.489Z,3.65
2022-12-01T15:32:39.349Z,3.66
2022-12-01T15:35:19.298Z,3.70
2022-12-01T15:37:48.910Z,3.78
2022-12-01T15:43:17.923Z,3.83
2022-12-01T15:45:50.777Z,3.71
2022-12-01T15:48:26.050Z,3.76
2022-12-01T15:51:08.864Z,3.57
2022-12-01T15:53:40.844Z,3.71
2022-12-01T15:56:12.068Z,3.62
2022-12-01T15:58:45.134Z,3.72
2022-12-01T16:01:14.987Z,3.83
2022-12-01T16:03:56.023Z,3.68
2022-12-01T16:06:30.185Z,3.83
2022-12-01T16:09:09.963Z,3.79
2022-12-01T16:11:40.578Z,3.64
2022-12-01T16:14:25.067Z,3.55
2022-12-01T16:16:54.946Z,3.67
2022-12-01T16:19:27.936Z,3.61
2022-12-01T16:22:06.149Z,3.65
2022-12-01T16:24:37.370Z,3.66
2022-12-01T16:27:09.456Z,3.61
2022-12-01T16:29:50.529Z,3.51
2022-12-01T16:32:31.217Z,3.45
2022-12-01T16:35:01.122Z,3.41
2022-12-01T16:37:50.235Z,3.44
2022-12-01T16:40:19.526Z,3.50
2022-12-01T16:42:52.087Z,3.19
2022-12-01T16:45:21.868Z,3.26
2022-12-01T16:47:51.181Z,3.37
2022-12-01T16:50:23.198Z,3.18
2022-12-01T16:52:53.957Z,3.37
2022-12-01T16:55:39.402Z,3.51
2022-12-01T16:58:08.568Z,3.40
2022-12-01T17:00:38.057Z,3.33
2022-12-01T17:03:09.824Z,3.42
2022-12-01T17:05:40.560Z,3.29
2022-12-01T17:08:11.240Z,3.43
2022-12-01T17:10:41.844Z,3.42
2022-12-01T17:13:11.154Z,3.22
2022-12-01T17:15:45.262Z,3.27
2022-12-01T17:18:16.601Z,3.19
2022-12-01T17:20:46.314Z,3.36
2022-12-01T17:23:18.203Z,3.49
2022-12-01T17:25:48.671Z,3.58
2022-12-01T17:28:18.367Z,3.61
2022-12-01T17:30:48.410Z,3.82
2022-12-01T17:33:17.733Z,3.84
2022-12-01T17:35:47.653Z,3.90
2022-12-01T17:38:22.214Z,3.91
2022-12-01T17:41:03.618Z,3.98
2022-12-01T17:43:33.949Z,4.17
2022-12-01T17:46:04.645Z,4.23
2022-12-01T17:48:37.767Z,4.22
2022-12-01T17:51:07.469Z,4.15
2022-12-01T17:53:39.703Z,3.92
2022-12-01T17:56:10.023Z,3.99
2022-12-01T17:58:39.716Z,3.95
2022-12-01T18:01:19.974Z,3.91
2022-12-01T18:03:51.272Z,3.91
2022-12-01T18:06:25.930Z,3.88
2022-12-01T18:08:57.634Z,3.77
2022-12-01T18:11:26.865Z,3.72
2022-12-01T18:13:56.033Z,3.71
2022-12-01T18:16:27.643Z,3.72
2022-12-01T18:18:58.128Z,3.70
2022-12-01T18:21:28.565Z,3.67
2022-12-01T18:24:00.925Z,3.68
2022-12-01T18:26:31.921Z,3.74
2022-12-01T18:29:02.720Z,3.67
2022-12-01T18:31:33.347Z,3.73
2022-12-01T18:34:04.183Z,3.74
2022-12-01T18:36:35.387Z,3.77
2022-12-01T18:39:09.006Z,3.69
2022-12-01T18:41:38.574Z,3.65
2022-12-01T18:44:07.756Z,3.80
2022-12-01T18:46:37.272Z,3.78
2022-12-01T18:49:07.694Z,3.75
2022-12-01T18:51:39.163Z,3.71
2022-12-01T18:54:12.376Z,3.74
2022-12-01T18:56:42.682Z,3.77
2022-12-01T18:59:13.958Z,3.58
2022-12-01T19:01:45.861Z,3.73
2022-12-01T19:04:16.441Z,3.76
2022-12-01T19:06:47.340Z,3.81
2022-12-01T19:09:19.573Z,3.81
2022-12-01T19:11:49.267Z,3.68
2022-12-01T19:14:20.696Z,3.73
2022-12-01T19:16:50.102Z,3.75
2022-12-01T19:19:19.525Z,3.72
2022-12-01T19:21:54.758Z,3.89
2022-12-01T19:24:25.430Z,3.90
2022-12-01T19:27:07.376Z,3.77
2022-12-01T19:29:36.835Z,3.80
2022-12-01T19:32:06.045Z,3.84
2022-12-01T19:34:35.930Z,3.81
2022-12-01T19:37:05.188Z,3.78
2022-12-01T19:39:38.281Z,3.82
2022-12-01T19:42:07.622Z,3.82
2022-12-01T19:44:36.674Z,3.86
2022-12-01T19:47:10.240Z,3.87
2022-12-01T19:49:44.071Z,3.85
2022-12-01T19:52:13.316Z,3.84
2022-12-01T19:54:43.954Z,3.78
2022-12-01T19:57:13.558Z,3.83
2022-12-01T19:59:43.864Z,3.82
2022-12-01T20:02:13.306Z,3.78
2022-12-01T20:04:42.500Z,3.79
2022-12-01T20:07:12.424Z,3.84
2022-12-01T20:10:03.746Z,3.86
2022-12-01T20:12:34.123Z,3.86
2022-12-01T20:15:07.496Z,3.87
2022-12-01T20:17:37.721Z,3.86
2022-12-01T20:20:08.637Z,3.78
2022-12-01T20:22:38.754Z,3.80
2022-12-01T20:25:10.687Z,3.78
2022-12-01T20:27:39.954Z,3.83
2022-12-01T20:30:10.601Z,3.83
2022-12-01T20:32:42.809Z,3.85
2022-12-01T20:35:29.082Z,3.83
2022-12-01T20:37:59.172Z,3.88
2022-12-01T20:40:29.996Z,3.78
2022-12-01T20:42:59.386Z,3.85
2022-12-01T20:45:28.654Z,3.81
2022-12-01T20:47:58.140Z,3.85
2022-12-01T20:50:27.282Z,3.83
2022-12-01T20:52:56.570Z,3.83
2022-12-01T20:55:26.163Z,3.88
2022-12-01T20:57:56.771Z,3.85
2022-12-01T21:00:25.842Z,3.89
2022-12-01T21:02:57.245Z,3.90
2022-12-01T21:05:26.696Z,3.89
2022-12-01T21:07:56.482Z,3.91
2022-12-01T21:10:25.643Z,3.92
2022-12-01T21:13:18.669Z,3.94
2022-12-01T21:15:52.524Z,3.94
2022-12-01T21:18:24.090Z,3.93
2022-12-01T21:20:58.426Z,3.98
2022-12-01T21:23:30.548Z,3.98
2022-12-01T21:25:59.856Z,4.01
2022-12-01T21:28:31.579Z,4.04
2022-12-01T21:31:12.664Z,3.99
2022-12-01T21:33:43.640Z,4.06
2022-12-01T21:36:17.735Z,4.08
2022-12-01T21:38:50.819Z,4.06
2022-12-01T21:41:22.649Z,4.05
2022-12-01T21:43:55.453Z,4.05
2022-12-01T21:46:24.593Z,4.04
2022-12-01T21:48:53.895Z,4.03
2022-12-01T21:51:25.222Z,4.09
2022-12-01T21:53:57.284Z,4.06
2022-12-01T21:56:28.553Z,4.04
2022-12-01T21:59:00.806Z,3.99
2022-12-01T22:01:34.046Z,4.03
2022-12-01T22:04:12.572Z,4.02
2022-12-01T22:06:44.696Z,4.09
2022-12-01T22:09:18.153Z,4.08
2022-12-01T22:11:50.854Z,4.05
2022-12-01T22:14:24.452Z,4.05
2022-12-01T22:16:58.450Z,4.05
2022-12-01T22:19:32.782Z,4.07
2022-12-01T22:22:05.181Z,4.19
2022-12-01T22:24:41.388Z,4.14
2022-12-01T22:27:38.304Z,4.17
2022-12-01T22:30:20.840Z,4.17
2022-12-01T22:32:56.681Z,4.14
2022-12-01T22:35:28.438Z,4.13
2022-12-01T22:38:10.633Z,4.14
2022-12-01T22:40:47.303Z,4.15
2022-12-01T22:43:25.421Z,4.18
2022-12-01T22:46:04.362Z,4.13
2022-12-01T22:48:39.683Z,4.15
2022-12-01T22:51:24.572Z,4.16
2022-12-01T22:53:58.343Z,4.20
2022-12-01T22:56:34.239Z,4.18
2022-12-01T22:59:12.166Z,4.20
2022-12-01T23:01:48.877Z,4.13
2022-12-01T23:04:27.804Z,4.15
2022-12-01T23:07:09.995Z,4.11
2022-12-01T23:09:42.767Z,4.23
2022-12-01T23:12:29.415Z,4.16
2022-12-01T23:15:01.219Z,4.26
2022-12-01T23:17:37.403Z,4.24
2022-12-01T23:20:29.482Z,4.20
2022-12-01T23:23:00.109Z,4.17
2022-12-01T23:25:30.299Z,4.08
2022-12-01T23:28:02.753Z,3.92
2022-12-01T23:30:31.868Z,4.06
2022-12-01T23:33:12.704Z,3.89
2022-12-01T23:35:46.275Z,3.97
2022-12-01T23:38:18.223Z,3.78
2022-12-01T23:40:47.572Z,3.68
2022-12-01T23:43:22.258Z,3.77
2022-12-01T23:45:54.421Z,3.65
2022-12-01T23:48:29.767Z,3.61
2022-12-01T23:50:58.839Z,3.68
2022-12-01T23:53:30.120Z,3.60
2022-12-01T23:56:06.268Z,3.58
2022-12-01T23:58:36.330Z,3.45
